Member area
Imprimable
Challenges > Delhalle - Dinant, 27/08/2017, BEL - La Descente de la Lesse
List of reports > Delhalle - 20,750km - Result
Search: Page: [1]
201 Entries
 
Complains are not accepted anymore. Results are final.
PlaceNrNameAgeNATLeagueTeamRealTimeTkmMoy.ScrPtsCity
1.4223MLECZKO OLIVIER46BELJOGGING PLUS1:20:441:20:443:54 15.42141086FLAWINNE
2.379MOUCHET STÉPHANE43BELACCOJACO1:21:131:21:133:55 15.33171079CHIMAY
3.2876ANDRE RUDY49BELARCHJOGGING PLUS1:23:271:23:274:02 14.92221051GESVES
4.263DELCHAMBRE FREDERIC44BELFOULÉES DU PLAISIR1:25:201:25:204:07 14.59251028WANZE
5.3157PIERRE ETIENNE47BELARCHJOG+1:26:561:26:564:12 14.32291009YVOIR
6.699NOUAMANI MOHAMMED46BELJOGGANS1:27:401:27:404:14 14.20311000GANSHOREN
7.4715COLOMER JEAN-FRANÇOIS45FRAARCH1:28:041:28:064:15 14.1332996HAMOIS
8.2781BARAS FREDERIC47BELJC BRAQUEGNIES1:28:281:28:344:17 14.0636989TRIVIERES
9.4242POCHET ALEXANDRE40BELJCCSJCCS1:28:411:28:414:17 14.0437987GEDINNE
10.2815BAUDOIN PHILIPPE47BELARCH1:29:281:29:294:19 13.9241977MIÉCRET
11.407PAQUET OLIVIER41BELJACO1:29:571:29:594:21 13.8443971COUVIN
12.456ROMBOUTS ERIK44BELAVN1:30:031:30:044:21 13.8244969HOOGSTRATEN
13.2780KADDOUR TOUINA41BELJC BRAQUEGNIES1:31:131:31:194:25 13.6452954BETTIGNIES
14.4183PONCELET FRÉDÉRIC44BELPOTOS ROS1:32:571:33:014:29 13.3958934BÂLATRE
15.4603POUSSEUR DOMINIQUE47BELARCH1:33:051:33:064:30 13.3759932LEIGNON
16.4189DUJEUX STEPHANE47BELTBT1:33:301:33:494:32 13.2762927BRUGGE SINT KRUIS
17.3166PELKMANS PETER40BEL1:33:541:33:544:32 13.2663922POEDERLEE (LILLE)
18.975LÉONARD MARC48BELFCHA1:34:191:34:324:34 13.1767916MOXHE
19.4416VAN HECKE STÉPHANE43BEL1:34:481:34:574:35 13.1170910ANDERLUES
20.3172RICHARD ULRICH43BELARCHMARATHON TEAM1:35:541:35:574:38 12.9876897DINANT
21.228MARCHAL YVES47BELRUNNING WILD1:36:111:36:134:39 12.9480892VEDRIN
22.4196SERCKX THOMAS45BEL1:36:291:36:324:40 12.9083889CHAUMONT-GISTOUX
23.4420VANDERPERREN CÉDRIC46BELUSBW1:36:471:36:494:40 12.8686885RHODE - SAINT - GENÈSE
24.4639CHILIADE FABRICE47BEL1:36:451:36:564:41 12.8588884ACHET
25.238VAN DEN ABEELE SEBASTIAN47BELACLOJOGGING PLUS1:36:581:36:584:41 12.8489882CARNIERES
26.956BARTOSZUK ROMAN43BELRCB1:36:571:37:014:41 12.8390881ZAVENTEM
27.4679HENRY GAETAN44BELGAETANHENRY1:37:001:37:064:41 12.8292880WANZE
28.4171MASSET MICKY49BEL1:37:011:37:154:42 12.8094879HONNAY
29.4179BRANLE DAVID48BELLDLV1:37:291:37:344:43 12.7697873CHATELINEAU
30.3214LICHTHERTE ERIC43BEL1:37:401:37:464:43 12.73100870HULSONNIAUX
31.3159WAUTHIER LAURENT41BEL1:37:461:37:504:43 12.73101869CINEY
32.4498SERVAIS JOHAN41BELFOULÉES DU PLAISIR1:37:501:38:014:44 12.70102868HUY
33.748SALAZAR NOEL44BEL1:38:241:38:294:45 12.64106861BRUSSEL
34.4382CHEVALIER MICHAËL45BEL1:38:191:38:334:45 12.63107861NIMY (MONS)
35.4224RATY HUGUES46BELRUNE FOR C1:38:231:38:394:46 12.62110860GILLY
36.4213LEROUX MICKAEL42FRA1:38:571:39:004:47 12.58115852GIVET
37.4434ROTTIER QUENTIN43BELCEPALCEPAL1:39:051:39:114:47 12.55118850BRUXELLES
38.409MASSART JEAN-CHRISTOPHE47BELRCNAMUR1:39:191:39:194:48 12.54120847PROFONDEVILLE
39.264SCAILLET VINCENT48BELHASTRAIL SINGLETRACK1:40:061:40:104:50 12.43126837HEER SUR MEUSE
40.4609DARTE DIDIER48BEL1:41:031:41:054:53 12.32131826SCHALTIN
41.4383HEYVAERT PASCAL47BELAC LEB1:41:201:41:344:54 12.26135822MOLLEM-ASSE
42.4117DECLERCK KRISTOF45BELLYRA1:41:211:41:344:54 12.26136821DUFFEL
43.374COLLARD ETIENNE49BELARCH1:42:211:42:234:57 12.16140810LESVE
44.3209JACQUET ÉRIC44BELDREHANCETEAM1:42:061:42:334:57 12.14141812DINANT
45.78DUTRIEUX FERNAND46BEL1:42:451:42:464:58 12.12143805BAUDOUR
46.4470KUYPERS CHRISTOPHE41BEL1:43:111:43:124:59 12.06145801GESVES
47.4143DEPOTER LAURENT46BEL1:43:071:43:234:59 12.04147800WAVREL
48.4114VANDEKERCKHOVE CHRISTOPHE42BEL1:43:161:43:295:00 12.03148799FLAWINNE
49.3158DORMAL LUDOVIC40BEL1:43:491:43:545:01 11.98154791CINEY
50.4178BRAQUET LAURENT48BELARCH1:43:491:43:575:01 11.98155791HAVELANGE
51.4731FALQUE JOHN44BELRCNAMURCNAMU1:44:061:44:125:02 11.95158787FLAWINNE
52.2811FARBER NICOLAS47BEL1:44:071:44:455:03 11.89163785LASNE
53.4228PHILIPPON PIERRE41BEL1:44:171:44:505:04 11.88164783CARNIERES
54.30HANNOTTE CHRISTOPHE44BELRUNNING FERNELMONT1:44:431:45:105:05 11.84168778NOVILLE-LES-BOIS
55.392POCHET BENOIT47BELJC HOUYET1:45:231:45:255:05 11.81170771HAN-SUR-LESSE
56.2808ALLOUCHI SOULI45BELU.A.C1:45:131:45:265:05 11.81171772WANFERCEE -BAULET
57.4648CHARLOT FABRICE47BELZATAC1:44:531:45:325:06 11.80172774THY LE CHATEAU
58.3164URBAIN BAUDOUIN46BEL1:46:051:46:105:07 11.73176762GOUY-LEZ-PIÉTON
59.4176HORNUNG MATTHIEU43DEURED SOX BRUSSELS1:46:111:46:185:08 11.71178761BRUXELLES
60.4430DELHAYE MARC49BELARCH1:47:301:47:305:11 11.58189745NATOYE
61.2807BADIN DIRK41BEL1:47:351:47:405:12 11.56190743CROIX
62.2803BAUWENS KRISTOF44BEL1:47:311:47:555:13 11.54193743AARSCHOT
63.3210DEGEIMBRE SANG-HO46BELZATOPEK NAMUR1:47:491:47:595:13 11.53195739TEMPLOUX
64.4684PRIST CHRISTIAN46BEL1:47:181:48:045:13 11.52196744BRUXELLES
65.4348RIOS JOSÉ43BELJOSE RRIOS1:47:381:48:125:13 11.51199739CHIMAY
66.585FRIPIAT BERNARD45BEL1:48:091:48:185:14 11.50201734JAMBES
67.2822ROSOUX LIONEL43BEL1:48:021:48:365:15 11.46204734NAMUR
68.4127DIANCOURT MICKAEL47FRAGRAC1:48:361:48:505:15 11.44206728LAVAL MORENCY
69.4128NOBEL RÉMY49FRAROUVROY ACTION SPORT1:48:361:48:505:15 11.44207728BLOMBAY
70.2755LAURENT JOHN41BELARCHARCH1:50:061:50:125:19 11.30219710PURNODE
71.4172FOGUENNE OLIVIER46BELEXPERT-COMPTABLE1:50:141:50:255:20 11.28225707STAVELOT
72.4596ROMAIN JEAN-FRANCOIS46BELBOUFFIOLS1:50:331:50:475:21 11.24229702BOUFFIOULX
73.4482CHILIADE LUIGI49BEL1:51:001:51:125:22 11.20235696FAULX-LES-TOMBES
74.4245ALEXIS VINCENT41BELJCHSH1:51:211:51:245:23 11.18237692MONT SUR MARCHIENNE
75.4124KNEL YVES40BEL1:51:261:51:345:23 11.16241690FENTANGE
76.4634PIERREUX CHRISTOPHE46BEL1:52:011:52:255:26 11.08252681KRAAINEM
77.4615COLINET BENOIT45BEL1:52:331:52:415:26 11.05259674JAMIOLLE
78.4195BORBOUSE JOHN47BELSMAC1:52:331:52:555:27 11.03264672BOIS-DE-VILLERS
79.2789CORDIER PASCAL47BELUTT1:53:071:53:145:28 11.00267666FOREST
80.695DE DAPPER DAVID44BELCSFMYSTERE1:53:141:53:155:28 10.99268665BRUXELLES
81.2836HUGOT CÉDRIC40BEL1:52:421:53:215:28 10.99270668VILLERS-SUR-LESSE
82.3194DARON MICHAËL45BEL1:52:571:53:245:28 10.98273665MESNIL-ST-BLAISE
83.4234CHARBON EMMANUEL45BEL1:52:551:53:325:29 10.97276664BOVESSE
84.4136VANDENHEEDE FREDERIC44BEL1:54:111:54:165:31 10.90285650CHAUMONT GISTOUX
85.4113HENNUY STEPHANE45BEL1:54:031:54:245:31 10.88286651LESVE
86.4343DARTOIS DIDIER49BEL1:53:501:54:365:32 10.87287652SAINT-DENIS-BOVESSE
87.4716DE BAENST BAUDOUIN44BEL1:54:561:55:325:35 10.78300638PROFONDEVILLE
88.4173HEBRANT ALEXANDRE43BELDION COURT1:55:031:55:325:35 10.78301637GREZ-DOICEAU
89.4605GLORIEUX FRÉDÉRIC45BEL1:54:421:55:445:35 10.76303639EVERE
90.4419CREMER JOEL45BEL1:55:121:55:575:36 10.74307633ALSEMBERG
91.4217PIRON CÉDRIC43BEL1:55:521:56:085:36 10.72311626FLOREFFE
92.4350GYEN MICHAËL40BELLES ÉOLES1:56:011:56:425:38 10.67319622VILLERS-LE-BOUILLET
93.463DEMIN MICHEL49BELTEAM MARCEL1:56:331:56:475:38 10.66321617SOVET
94.4733BRESSON FABRICE44FRA1:57:001:57:075:39 10.63324611BRUXELLES
95.2857DE BOCK PHILIP45BELJAMES1:57:111:57:265:40 10.60330608OTTIGNIES-LOUVAIN-LA-NEUVE
96.4707CAUPAIN FABIAN48BEL1:57:261:57:265:40 10.60331605WALHAIN
97.4672VANDEWEYERS BRAM43BEL1:57:401:58:035:42 10.55337601GELRODE
98.4635GODART ALEXANDRE40BELGAG1:58:011:58:375:43 10.50340597GEDINNE
99.2871MICHAUX JEAN FRANÇOIS40BELARCHE1:59:051:59:145:45 10.44344587HAVELANGE
100.4743HAUTECLAIR MARC49BEL1:58:501:59:285:46 10.42348588HUY
101.4392MOURTADA KARIM40BELLOLL1:59:311:59:525:47 10.39353580SCHAERBEEK
102.4386PIHART HUGO40BELROCCATEAM PIHART PIERLOT1:59:082:00:005:47 10.38354583HAN SUR LESSE
103.4616PIETTE MICHAEL45BEL1:59:252:00:025:48 10.37355580AGIMONT
104.2928DECLERCQ FRANÇOIS46BELZATAC CHARLEROI1:59:412:00:075:48 10.37359577LODELISNART
105.4229DE WULF SÉBASTIEN42BEL1:59:072:00:085:48 10.36360581BRAINE-L'ALLEUD
106.4664LEMAIRE JEANMARC42BEL1:59:292:00:085:48 10.36361577TRAZEGNIES
107.4443LECLERCQ MICHEL49BEL1:59:572:00:505:50 10.30373569NAMUR
108.2852LENOIR CEDRIC44BEL2:00:542:01:045:51 10.28375561AYE
109.2853MEYKENS CHRISTOPHE48BEL2:00:542:01:045:51 10.28376560COURT-SAINT-ETIENNE
110.4351OGER PIERRE48BELLES ÉOLES2:00:272:01:075:51 10.28377563VILLERS LE BOUILLET
111.3242SAUVAGE JOANNY44BELARCHARCH2:00:562:01:245:51 10.26380559BIOUL
112.4431LIBOIS JEAN-MARC48BEL2:00:512:01:315:52 10.25384557SAINT-SERVAIS
113.4144MACAUX DAVID44BEL2:01:412:01:575:53 10.21388550WAVRE
114.4226BORLÉE BENOÎT41BEL2:01:412:02:015:53 10.20392548BRUXELLES
115.154JAROUD SAID46BEL2:01:532:02:105:54 10.19396545FOREST
116.113MICHEL PIERRE48BELMOTIVÉS DE METTET2:02:032:02:265:55 10.17401542DENÉE
117.3205DELGRANGE FRANÇOIS40BEL2:01:562:02:445:55 10.15405541HALTINNE
118.4645TERRYN FRANCOIS42BEL2:02:512:03:205:57 10.10414531NAMUR
119.4650BRASSEUR PHILIPPE48BELJCPMF JEMELLE2:03:032:03:555:59 10.05422526JEMELLE
120.4413WUESTENBERGS JEAN-MICHEL41BEL2:03:302:04:296:00 10.00426521ANDENNE
121.4717LORGE PASCAL48BELPASCALLORGE2:04:502:04:526:02 9.97433508ANDENNE
122.4150CEBO FRÉDÉRIC47BELVALEO PLUS/BOUFFIOLS2:04:352:05:106:02 9.95436508MONTIGNIES-SUR-SAMBRE
123.2828HAULOTTE OLIVIER43BEL2:05:022:05:256:03 9.93441503PERWEZ
124.4370MAZZAGLIA PIETRO43BEL2:04:512:05:376:04 9.91446503LEIGNON
125.110PONCELET XAVIER42BELCABWJOGGPLUS2:05:392:05:396:04 9.91447496VITRIVAL
126.2838ANTONACCI DAN49ITAXYD2:05:042:05:446:04 9.90448500LAMBUSART
127.4477KINET ANDREW48BELETEETE ENGHIEN2:05:562:06:056:05 9.87452492REBECQ
128.4466DECKMYN SÉBASTIEN43BEL2:05:432:06:096:05 9.87453493WANZE
129.3152DODEMONT FABIAN40BEL2:05:442:06:106:05 9.87454493HUY
130.2820TOMEN CHARLIE45FRA2:05:552:06:326:06 9.84461489FLAWINNE
131.4676ZEEBERGH JEAN-MATHIEU40BEL2:05:452:06:366:07 9.84462489FORVILLE
132.4750GOGNIES DAVID48FRAFFADAC REIMS2:06:172:06:466:07 9.82465484VANDIERES
133.3167EVRARD DAMIEN41BEL2:07:092:07:186:09 9.78471476GENDRON-CELLES
134.3215DELSIPEE DAVID40BEL2:07:502:08:396:12 9.68492462PROFONDEVILLE
135.2800JAUMOTTE BENOIT49BEL2:07:572:08:526:13 9.66495460AYE
136.4433DEGROOTE NICOLAAS42BELRCABWNAC2:09:082:09:186:14 9.63500450BRUXELLES
137.4390GILLET PIERRE-YVES43BELUELKOM2:09:122:09:256:15 9.62501449FOREST
138.4499VANDERMEULEN DENIS41BELCRAC2:09:072:09:396:15 9.60503449GILLY
139.4685BALFROID YVAN47BEL2:10:012:10:116:17 9.56507441BOUGE
140.4374NEYMAN PASCAL49BEL2:09:402:10:216:17 9.55510442SAINT-GÉRARD
141.4595TREVISAN DAVID44BELBOUFFIOLS2:09:502:10:256:18 9.55511440BOUFFIOULX
142.4181DESTREBECQ DIDIER48BEL2:10:142:10:376:18 9.53512437QUEVAUCAMPS
143.4712TOSCANUCCI MICHAËL42BEL2:09:582:10:426:18 9.53513439MARCHIENNE AU PONT
144.3202MARRAZZA RODOLPHE43BELARCH2:10:342:10:466:19 9.52514433SART BERNARD
145.2935HOUGRAND OLIVIER49BEL2:10:322:10:506:19 9.52518433ESNEUX
146.383MAGOTTE OLIVIER45BELJAMES2:10:232:10:566:19 9.51522432NIVELLES
147.3220VAN PEE JOHAN49BELMAC2:10:042:11:126:20 9.49524434HOEILAART
148.4732BUREAU LAURENT42FRA2:10:452:11:246:20 9.48527427MAING
149.514GREVISSE DAVID43BELRONVAU2:11:152:11:296:21 9.47530423DION VALMONT
150.4439DAUVIN BENJAMIN41BELJCCS2:11:422:12:156:23 9.41542415¨PONDRÔME
151.273SABLON DOMINIQUE47BELCRAC2:12:292:13:026:25 9.36547407FORCHIES-LA-MARCHE
152.4151EL HARCHI SAID47BELNONNON2:13:022:13:446:27 9.31558399VIEUX GENAPPE
153.4166CAPOUILLEZ BENOIT45BELESM2:13:452:14:146:29 9.28564392THIMÉON - BELGIQUE
154.2793LIBION MARC49BEL2:14:052:14:286:29 9.26566388FLAWINNE
155.3238STOCK JF47BEL2:14:132:14:296:29 9.26567387GESVES
156.4163WUIDAR DAMIEN40BEL2:13:512:14:456:30 9.24571388AYE
157.4705BARTIAUX JEAN-MARC48BELCAP BEAURAING2:15:252:15:366:33 9.18583372FESCHAUX
158.4678DIDION OLIVIER40BEL2:14:512:15:426:33 9.18584376CINEY
159.4371JESSA JOHAN45BEL2:15:152:16:006:34 9.15588372CHEVETOGNE
160.3170MONIN MIGUEL40BELARCH2:15:302:16:086:34 9.15590369CINEY
161.4240GUILLAUME FRÉDÉRIC44BEL2:15:242:16:196:35 9.13591370JAVINGUE
162.4193PIERRET CLAUDE48BEL2:15:482:16:286:35 9.12592366ATHUS
163.2835AOUST LIONEL41BEL2:16:052:16:426:36 9.11596363ROCHEFORT
164.2816ALI CHAIB44BEL2:16:462:17:016:37 9.09601356NAMUR
165.2867GREGOOR FABIAN44BEL2:16:392:17:186:37 9.07605355VILLERS LE BOUILLET
166.4606BOISSELEAU FRANCOIS41BELFRANCOBOISSELEAU2:19:102:19:136:43 8.94624331BRUSSELS
167.2880JACOBS MARC43NLD2:18:122:19:186:43 8.94626336ZUTPHEN
168.4740HEKLINGER SYLVAIN44FRA2:20:202:21:146:49 8.82642316ALLEUR
169.4408CYWINSKI LAURENT43BELZATAC2:20:292:21:176:49 8.81643314GOSSELIES
170.4201DITHMAR ERIK48BEL2:20:302:21:316:50 8.80645313BAISY-THY
171.4232MASUY CEDRY40BEL2:21:082:21:446:50 8.78649307JAMBES
172.4359DORMAL STÉPHANE44BELJCPMF HÉRON2:21:242:22:106:52 8.76654304HÉRON
173.2861GREGOIRE VINCENT48BELCRACCRAC2:21:442:22:176:52 8.75656301FORCHIES-LA-MARCHE
174.4146MAST ANTHONY49BEL2:21:572:22:286:52 8.74658299AALTER
175.4239VASILE GREGORY40BEL2:22:022:22:396:53 8.73659297FRAIRE
176.2932VAN MOLLEKOT CHRISTOPHE46BEL2:22:392:23:266:55 8.68667290WATERLOO
177.4236LAMBOTTE FABRICE47BEL2:22:512:23:326:56 8.67668288PROFONDEVILLE
178.4488LALOUX GAETAN45BELGLAISE & ROC2:23:282:23:416:56 8.67672283LESSIVE
179.227MARGINET DOMINIQUE40BELJOGGANS2:23:342:24:396:59 8.61686277BRUXELLES
180.2812VAN LENNEP VINCENT42BEL2:24:212:24:597:00 8.59688271LASNE
181.4153ROUCOUX FRANÇOIS44BELRUNPRO2:24:392:25:037:00 8.58692267WEPION
182.4620PLEINEVAUX STEPHAN49BELJCPMF HERON2:24:212:25:057:00 8.58693269COUTHUIN
183.4212DELACUVELLERIE PHILIPPE47BEL2:24:272:25:337:01 8.55696267HÉLÉCINE
184.4134MATHURIN RUDY49BELGLAISE ET ROC2:25:362:25:527:02 8.54702257CINEY
185.4599DUTRIEUX MICHAËL42BELSUK C'EST FOU2:25:152:25:527:02 8.54703259TOURNAI
186.4610LIFRANGE MARC-OLIVIER48BELENJAMBEE2:25:052:26:057:03 8.52708258BRUXELLES
187.2862DELLA FAILLE GILLES46BEL2:27:112:27:417:08 8.43718241SCHAERBEEK
188.199ALAIME SEBASTIEN45BELSPTWAVRE2:26:402:27:437:08 8.43720243LIMAL
189.4663DESCHRIJVERE DENIS49BEL2:26:452:27:487:08 8.42721243TERVUREN
190.4198CLINQUART JEAN-CHRISTOPHE41BELR.R.T.TOURNAI2:27:232:27:587:08 8.41722238GAURAIN-RAMECROIX
191.4630DE BIOURGE GERY43BEL2:27:132:28:107:09 8.40723239BRAINE-LE-COMTE
192.95MANSY STEVEN44BEL2:28:152:29:087:12 8.35732228FOSSES-LA VILLE
193.4700CHANET FREDERIC47BEL2:28:432:29:147:12 8.34734225CORROY LE CHATEAU
194.4699GERARD RENAUD46BEL2:31:452:32:167:21 8.18763194LLN
195.4637GIACOMUZZI NICOLO45ITA2:39:202:40:297:45 7.76818126BRUXELLES
196.274DERUYCK SERGE44BEL2:39:332:40:347:45 7.75821124BAISY-THY
197.4246VANDEN BROECK PHILIPPE46BELALIAXIS2:41:122:41:427:48 7.70830111COURT-SAINT-ETIENNE
198.4617VERGALLO MICHAEL41BEL2:41:362:42:277:50 7.66835107FONTAINE
199.3241PIRARD THIERRY49BELMENUISERIE PIRARD2:42:142:42:417:51 7.65837102GOESNES
200.4604BENABBAS IDIR41BEL2:58:552:59:588:41 6.928651FOREST
DNF8746LAGASSE NICOLAS44BELGELBRESSÉE
DNF: did not finish; DSQ: disqualified; Speed in km/h
Page: [1]